sensor_id;sensor_type;location;lat;lon;timestamp;P1;durP1;ratioP1;P2;durP2;ratioP2
8622;SDS011;4349;47.552;8.904;2023-04-03T00:02:20;3.30;;;3.20;;
8622;SDS011;4349;47.552;8.904;2023-04-03T00:04:48;3.60;;;3.40;;
8622;SDS011;4349;47.552;8.904;2023-04-03T00:07:15;3.87;;;3.67;;
8622;SDS011;4349;47.552;8.904;2023-04-03T00:09:43;4.30;;;4.00;;
8622;SDS011;4349;47.552;8.904;2023-04-03T00:12:10;4.07;;;3.87;;
8622;SDS011;4349;47.552;8.904;2023-04-03T00:14:39;4.33;;;4.13;;
8622;SDS011;4349;47.552;8.904;2023-04-03T00:17:06;3.87;;;3.73;;
8622;SDS011;4349;47.552;8.904;2023-04-03T00:19:34;4.57;;;4.30;;
8622;SDS011;4349;47.552;8.904;2023-04-03T00:22:01;3.87;;;3.73;;
8622;SDS011;4349;47.552;8.904;2023-04-03T00:24:29;4.87;;;4.47;;
8622;SDS011;4349;47.552;8.904;2023-04-03T00:26:57;4.63;;;4.37;;
8622;SDS011;4349;47.552;8.904;2023-04-03T00:29:25;4.90;;;4.50;;
8622;SDS011;4349;47.552;8.904;2023-04-03T00:31:54;4.27;;;4.07;;
8622;SDS011;4349;47.552;8.904;2023-04-03T00:34:21;4.40;;;4.20;;
8622;SDS011;4349;47.552;8.904;2023-04-03T00:36:49;4.33;;;4.13;;
8622;SDS011;4349;47.552;8.904;2023-04-03T00:39:17;5.27;;;4.87;;
8622;SDS011;4349;47.552;8.904;2023-04-03T00:41:45;4.93;;;4.53;;
8622;SDS011;4349;47.552;8.904;2023-04-03T00:44:19;5.10;;;4.80;;
8622;SDS011;4349;47.552;8.904;2023-04-03T00:46:47;4.83;;;4.53;;
8622;SDS011;4349;47.552;8.904;2023-04-03T00:49:16;4.77;;;4.47;;
8622;SDS011;4349;47.552;8.904;2023-04-03T00:51:43;4.23;;;4.03;;
8622;SDS011;4349;47.552;8.904;2023-04-03T00:54:11;4.17;;;3.97;;
8622;SDS011;4349;47.552;8.904;2023-04-03T00:56:39;4.90;;;4.60;;
8622;SDS011;4349;47.552;8.904;2023-04-03T00:59:08;4.53;;;4.33;;
8622;SDS011;4349;47.552;8.904;2023-04-03T01:01:37;4.37;;;4.17;;
8622;SDS011;4349;47.552;8.904;2023-04-03T01:04:05;4.67;;;4.37;;
8622;SDS011;4349;47.552;8.904;2023-04-03T01:06:35;6.00;;;5.50;;
8622;SDS011;4349;47.552;8.904;2023-04-03T01:09:06;5.80;;;5.40;;
8622;SDS011;4349;47.552;8.904;2023-04-03T01:11:33;5.77;;;5.37;;
8622;SDS011;4349;47.552;8.904;2023-04-03T01:14:01;5.53;;;5.13;;
8622;SDS011;4349;47.552;8.904;2023-04-03T01:16:29;5.87;;;5.47;;
8622;SDS011;4349;47.552;8.904;2023-04-03T01:18:58;6.03;;;5.27;;
8622;SDS011;4349;47.552;8.904;2023-04-03T01:24:27;5.33;;;5.03;;
8622;SDS011;4349;47.552;8.904;2023-04-03T01:26:58;5.40;;;5.10;;
8622;SDS011;4349;47.552;8.904;2023-04-03T01:29:26;6.07;;;5.67;;
8622;SDS011;4349;47.552;8.904;2023-04-03T01:31:55;5.90;;;5.50;;
8622;SDS011;4349;47.552;8.904;2023-04-03T01:34:23;5.90;;;5.50;;
8622;SDS011;4349;47.552;8.904;2023-04-03T01:36:51;5.27;;;4.97;;
8622;SDS011;4349;47.552;8.904;2023-04-03T01:39:20;4.83;;;4.63;;
8622;SDS011;4349;47.552;8.904;2023-04-03T01:41:48;5.67;;;5.27;;
8622;SDS011;4349;47.552;8.904;2023-04-03T01:44:29;5.70;;;5.30;;
8622;SDS011;4349;47.552;8.904;2023-04-03T01:46:58;4.80;;;4.60;;
8622;SDS011;4349;47.552;8.904;2023-04-03T01:49:27;5.27;;;4.97;;
8622;SDS011;4349;47.552;8.904;2023-04-03T01:51:55;4.90;;;4.50;;
8622;SDS011;4349;47.552;8.904;2023-04-03T01:54:23;4.77;;;4.50;;
8622;SDS011;4349;47.552;8.904;2023-04-03T01:56:50;4.57;;;4.37;;
8622;SDS011;4349;47.552;8.904;2023-04-03T01:59:19;5.00;;;4.80;;
8622;SDS011;4349;47.552;8.904;2023-04-03T02:01:46;5.30;;;5.00;;
8622;SDS011;4349;47.552;8.904;2023-04-03T02:04:15;4.70;;;4.50;;
8622;SDS011;4349;47.552;8.904;2023-04-03T02:06:43;5.03;;;4.73;;
8622;SDS011;4349;47.552;8.904;2023-04-03T02:09:10;4.93;;;4.73;;
8622;SDS011;4349;47.552;8.904;2023-04-03T02:11:38;5.30;;;5.00;;
8622;SDS011;4349;47.552;8.904;2023-04-03T02:14:05;4.70;;;4.40;;
8622;SDS011;4349;47.552;8.904;2023-04-03T02:16:33;4.90;;;4.70;;
8622;SDS011;4349;47.552;8.904;2023-04-03T02:19:00;5.17;;;4.90;;
8622;SDS011;4349;47.552;8.904;2023-04-03T02:21:30;5.30;;;5.00;;
8622;SDS011;4349;47.552;8.904;2023-04-03T02:23:58;5.70;;;5.40;;
8622;SDS011;4349;47.552;8.904;2023-04-03T02:26:25;4.67;;;4.47;;
8622;SDS011;4349;47.552;8.904;2023-04-03T02:28:53;5.90;;;5.50;;
8622;SDS011;4349;47.552;8.904;2023-04-03T02:31:20;5.10;;;4.90;;
8622;SDS011;4349;47.552;8.904;2023-04-03T02:33:48;5.60;;;5.20;;
8622;SDS011;4349;47.552;8.904;2023-04-03T02:36:15;5.30;;;5.00;;
8622;SDS011;4349;47.552;8.904;2023-04-03T02:38:50;6.10;;;5.63;;
8622;SDS011;4349;47.552;8.904;2023-04-03T02:41:18;5.03;;;4.83;;
8622;SDS011;4349;47.552;8.904;2023-04-03T02:43:48;5.43;;;5.13;;
8622;SDS011;4349;47.552;8.904;2023-04-03T02:46:15;5.57;;;5.27;;
8622;SDS011;4349;47.552;8.904;2023-04-03T02:48:43;5.30;;;5.00;;
8622;SDS011;4349;47.552;8.904;2023-04-03T02:51:10;5.00;;;4.70;;
8622;SDS011;4349;47.552;8.904;2023-04-03T02:53:38;5.47;;;5.07;;
8622;SDS011;4349;47.552;8.904;2023-04-03T02:56:12;5.47;;;5.13;;
8622;SDS011;4349;47.552;8.904;2023-04-03T02:58:40;5.47;;;5.07;;
8622;SDS011;4349;47.552;8.904;2023-04-03T03:01:08;5.80;;;5.50;;
8622;SDS011;4349;47.552;8.904;2023-04-03T03:03:36;5.80;;;5.50;;
8622;SDS011;4349;47.552;8.904;2023-04-03T03:06:03;5.53;;;5.13;;
8622;SDS011;4349;47.552;8.904;2023-04-03T03:08:32;6.27;;;5.87;;
8622;SDS011;4349;47.552;8.904;2023-04-03T03:11:00;5.93;;;5.63;;
8622;SDS011;4349;47.552;8.904;2023-04-03T03:13:29;6.00;;;5.60;;
8622;SDS011;4349;47.552;8.904;2023-04-03T03:15:57;5.60;;;5.30;;
8622;SDS011;4349;47.552;8.904;2023-04-03T03:18:24;6.17;;;5.77;;
8622;SDS011;4349;47.552;8.904;2023-04-03T03:20:52;6.27;;;5.77;;
8622;SDS011;4349;47.552;8.904;2023-04-03T03:23:21;6.37;;;5.90;;
8622;SDS011;4349;47.552;8.904;2023-04-03T03:25:53;6.13;;;5.73;;
8622;SDS011;4349;47.552;8.904;2023-04-03T03:28:21;6.40;;;6.00;;
8622;SDS011;4349;47.552;8.904;2023-04-03T03:30:50;6.83;;;6.33;;
8622;SDS011;4349;47.552;8.904;2023-04-03T03:33:18;6.47;;;6.03;;
8622;SDS011;4349;47.552;8.904;2023-04-03T03:35:45;6.80;;;6.30;;
8622;SDS011;4349;47.552;8.904;2023-04-03T03:38:13;6.53;;;6.03;;
8622;SDS011;4349;47.552;8.904;2023-04-03T03:40:41;6.63;;;6.23;;
8622;SDS011;4349;47.552;8.904;2023-04-03T03:43:08;6.40;;;6.00;;
8622;SDS011;4349;47.552;8.904;2023-04-03T03:45:36;6.50;;;6.10;;
8622;SDS011;4349;47.552;8.904;2023-04-03T03:48:05;6.23;;;5.83;;
8622;SDS011;4349;47.552;8.904;2023-04-03T03:50:33;6.67;;;6.17;;
8622;SDS011;4349;47.552;8.904;2023-04-03T03:53:00;6.20;;;5.70;;
8622;SDS011;4349;47.552;8.904;2023-04-03T03:55:28;6.23;;;5.80;;
8622;SDS011;4349;47.552;8.904;2023-04-03T03:57:56;6.43;;;6.03;;
8622;SDS011;4349;47.552;8.904;2023-04-03T04:00:26;6.60;;;6.10;;
8622;SDS011;4349;47.552;8.904;2023-04-03T04:02:55;6.40;;;6.00;;
8622;SDS011;4349;47.552;8.904;2023-04-03T04:05:26;6.20;;;5.80;;
8622;SDS011;4349;47.552;8.904;2023-04-03T04:07:54;5.97;;;5.57;;
8622;SDS011;4349;47.552;8.904;2023-04-03T04:10:22;5.97;;;5.57;;
8622;SDS011;4349;47.552;8.904;2023-04-03T04:12:50;5.80;;;5.50;;
8622;SDS011;4349;47.552;8.904;2023-04-03T04:15:21;6.07;;;5.67;;
8622;SDS011;4349;47.552;8.904;2023-04-03T04:17:50;5.60;;;5.30;;
8622;SDS011;4349;47.552;8.904;2023-04-03T04:20:17;5.57;;;5.17;;
8622;SDS011;4349;47.552;8.904;2023-04-03T04:22:48;5.20;;;4.90;;
8622;SDS011;4349;47.552;8.904;2023-04-03T04:25:16;5.77;;;5.37;;
8622;SDS011;4349;47.552;8.904;2023-04-03T04:27:44;5.20;;;4.80;;
8622;SDS011;4349;47.552;8.904;2023-04-03T04:30:14;5.57;;;5.23;;
8622;SDS011;4349;47.552;8.904;2023-04-03T04:32:43;5.50;;;5.20;;
8622;SDS011;4349;47.552;8.904;2023-04-03T04:35:11;5.63;;;5.00;;
8622;SDS011;4349;47.552;8.904;2023-04-03T04:37:44;5.17;;;4.87;;
8622;SDS011;4349;47.552;8.904;2023-04-03T04:40:13;5.27;;;4.87;;
8622;SDS011;4349;47.552;8.904;2023-04-03T04:42:41;4.53;;;4.33;;
8622;SDS011;4349;47.552;8.904;2023-04-03T04:45:09;4.63;;;4.33;;
8622;SDS011;4349;47.552;8.904;2023-04-03T04:47:39;4.60;;;4.30;;
8622;SDS011;4349;47.552;8.904;2023-04-03T04:50:07;5.20;;;4.90;;
8622;SDS011;4349;47.552;8.904;2023-04-03T04:52:36;5.20;;;4.90;;
8622;SDS011;4349;47.552;8.904;2023-04-03T04:55:04;5.07;;;4.77;;
8622;SDS011;4349;47.552;8.904;2023-04-03T04:57:33;4.97;;;4.67;;
8622;SDS011;4349;47.552;8.904;2023-04-03T05:00:02;4.40;;;4.20;;
8622;SDS011;4349;47.552;8.904;2023-04-03T05:02:30;4.80;;;4.50;;
8622;SDS011;4349;47.552;8.904;2023-04-03T05:04:58;4.03;;;3.83;;
8622;SDS011;4349;47.552;8.904;2023-04-03T05:07:28;4.30;;;4.10;;
8622;SDS011;4349;47.552;8.904;2023-04-03T05:09:57;4.57;;;4.37;;
8622;SDS011;4349;47.552;8.904;2023-04-03T05:12:24;4.40;;;4.20;;
8622;SDS011;4349;47.552;8.904;2023-04-03T05:14:58;4.93;;;4.63;;
8622;SDS011;4349;47.552;8.904;2023-04-03T05:17:28;4.70;;;4.40;;
8622;SDS011;4349;47.552;8.904;2023-04-03T05:19:56;4.90;;;4.50;;
8622;SDS011;4349;47.552;8.904;2023-04-03T05:22:25;4.23;;;3.97;;
8622;SDS011;4349;47.552;8.904;2023-04-03T05:24:57;4.57;;;4.27;;
8622;SDS011;4349;47.552;8.904;2023-04-03T05:27:26;4.20;;;3.90;;
8622;SDS011;4349;47.552;8.904;2023-04-03T05:29:56;4.30;;;4.10;;
8622;SDS011;4349;47.552;8.904;2023-04-03T05:32:25;4.17;;;3.97;;
8622;SDS011;4349;47.552;8.904;2023-04-03T05:35:06;4.43;;;4.23;;
8622;SDS011;4349;47.552;8.904;2023-04-03T05:37:35;4.70;;;4.50;;
8622;SDS011;4349;47.552;8.904;2023-04-03T05:40:03;4.23;;;4.03;;
8622;SDS011;4349;47.552;8.904;2023-04-03T05:42:31;4.53;;;4.23;;
8622;SDS011;4349;47.552;8.904;2023-04-03T05:44:59;3.93;;;3.73;;
8622;SDS011;4349;47.552;8.904;2023-04-03T05:47:28;4.20;;;4.00;;
8622;SDS011;4349;47.552;8.904;2023-04-03T05:49:56;4.20;;;4.00;;
8622;SDS011;4349;47.552;8.904;2023-04-03T05:52:25;4.70;;;4.37;;
8622;SDS011;4349;47.552;8.904;2023-04-03T05:54:54;4.20;;;4.00;;
8622;SDS011;4349;47.552;8.904;2023-04-03T05:57:25;4.67;;;4.47;;
8622;SDS011;4349;47.552;8.904;2023-04-03T05:59:52;5.30;;;4.53;;
8622;SDS011;4349;47.552;8.904;2023-04-03T06:02:21;4.00;;;3.80;;
8622;SDS011;4349;47.552;8.904;2023-04-03T06:04:51;3.83;;;3.73;;
8622;SDS011;4349;47.552;8.904;2023-04-03T06:07:20;4.10;;;3.90;;
8622;SDS011;4349;47.552;8.904;2023-04-03T06:09:48;4.30;;;4.00;;
8622;SDS011;4349;47.552;8.904;2023-04-03T06:12:16;4.90;;;4.60;;
8622;SDS011;4349;47.552;8.904;2023-04-03T06:14:43;3.50;;;3.40;;
8622;SDS011;4349;47.552;8.904;2023-04-03T06:17:12;4.20;;;4.00;;
8622;SDS011;4349;47.552;8.904;2023-04-03T06:19:40;4.40;;;4.13;;
8622;SDS011;4349;47.552;8.904;2023-04-03T06:22:09;4.07;;;3.87;;
8622;SDS011;4349;47.552;8.904;2023-04-03T06:24:37;4.20;;;4.00;;
8622;SDS011;4349;47.552;8.904;2023-04-03T06:27:05;3.90;;;3.70;;
8622;SDS011;4349;47.552;8.904;2023-04-03T06:29:33;3.87;;;3.67;;
8622;SDS011;4349;47.552;8.904;2023-04-03T06:32:01;4.03;;;3.67;;
8622;SDS011;4349;47.552;8.904;2023-04-03T06:34:28;3.40;;;3.20;;
8622;SDS011;4349;47.552;8.904;2023-04-03T06:36:56;3.87;;;3.67;;
8622;SDS011;4349;47.552;8.904;2023-04-03T06:39:24;3.80;;;3.60;;
8622;SDS011;4349;47.552;8.904;2023-04-03T06:41:52;3.63;;;3.43;;
8622;SDS011;4349;47.552;8.904;2023-04-03T06:44:27;3.53;;;3.43;;
8622;SDS011;4349;47.552;8.904;2023-04-03T06:46:55;3.60;;;3.40;;
8622;SDS011;4349;47.552;8.904;2023-04-03T06:49:22;3.30;;;3.20;;
8622;SDS011;4349;47.552;8.904;2023-04-03T06:51:50;3.53;;;3.40;;
8622;SDS011;4349;47.552;8.904;2023-04-03T06:54:17;3.87;;;3.67;;
8622;SDS011;4349;47.552;8.904;2023-04-03T06:56:46;3.00;;;2.90;;
8622;SDS011;4349;47.552;8.904;2023-04-03T06:59:14;3.67;;;3.50;;
8622;SDS011;4349;47.552;8.904;2023-04-03T07:01:42;3.17;;;3.07;;
8622;SDS011;4349;47.552;8.904;2023-04-03T07:04:09;3.37;;;3.17;;
8622;SDS011;4349;47.552;8.904;2023-04-03T07:06:37;3.40;;;3.30;;
8622;SDS011;4349;47.552;8.904;2023-04-03T07:09:04;3.40;;;3.23;;
8622;SDS011;4349;47.552;8.904;2023-04-03T07:11:32;3.33;;;3.13;;
8622;SDS011;4349;47.552;8.904;2023-04-03T07:14:00;3.20;;;3.00;;
8622;SDS011;4349;47.552;8.904;2023-04-03T07:16:28;3.30;;;3.03;;
8622;SDS011;4349;47.552;8.904;2023-04-03T07:18:57;3.57;;;3.37;;
8622;SDS011;4349;47.552;8.904;2023-04-03T07:21:24;3.37;;;3.27;;
8622;SDS011;4349;47.552;8.904;2023-04-03T07:23:52;3.80;;;3.50;;
8622;SDS011;4349;47.552;8.904;2023-04-03T07:26:19;3.43;;;3.20;;
8622;SDS011;4349;47.552;8.904;2023-04-03T07:28:47;3.37;;;3.27;;
8622;SDS011;4349;47.552;8.904;2023-04-03T07:31:16;3.60;;;3.40;;
8622;SDS011;4349;47.552;8.904;2023-04-03T07:33:44;3.47;;;3.27;;
8622;SDS011;4349;47.552;8.904;2023-04-03T07:36:14;3.60;;;3.40;;
8622;SDS011;4349;47.552;8.904;2023-04-03T07:38:42;3.73;;;3.53;;
8622;SDS011;4349;47.552;8.904;2023-04-03T07:41:10;3.63;;;3.43;;
8622;SDS011;4349;47.552;8.904;2023-04-03T07:43:39;3.33;;;3.23;;
8622;SDS011;4349;47.552;8.904;2023-04-03T07:46:07;3.60;;;3.40;;
8622;SDS011;4349;47.552;8.904;2023-04-03T07:48:36;3.60;;;3.40;;
8622;SDS011;4349;47.552;8.904;2023-04-03T07:51:04;3.43;;;3.23;;
8622;SDS011;4349;47.552;8.904;2023-04-03T07:53:31;3.60;;;3.40;;
8622;SDS011;4349;47.552;8.904;2023-04-03T07:55:59;3.60;;;3.50;;
8622;SDS011;4349;47.552;8.904;2023-04-03T07:58:28;3.83;;;3.60;;
8622;SDS011;4349;47.552;8.904;2023-04-03T08:00:56;3.67;;;3.47;;
8622;SDS011;4349;47.552;8.904;2023-04-03T08:03:23;3.50;;;3.30;;
8622;SDS011;4349;47.552;8.904;2023-04-03T08:05:52;3.37;;;3.17;;
8622;SDS011;4349;47.552;8.904;2023-04-03T08:08:21;3.70;;;3.40;;
8622;SDS011;4349;47.552;8.904;2023-04-03T08:10:49;3.60;;;3.40;;
8622;SDS011;4349;47.552;8.904;2023-04-03T08:13:16;3.70;;;3.50;;
8622;SDS011;4349;47.552;8.904;2023-04-03T08:15:44;3.60;;;3.40;;
8622;SDS011;4349;47.552;8.904;2023-04-03T08:18:11;3.60;;;3.40;;
8622;SDS011;4349;47.552;8.904;2023-04-03T08:20:39;3.40;;;3.20;;
8622;SDS011;4349;47.552;8.904;2023-04-03T08:23:08;3.80;;;3.60;;
8622;SDS011;4349;47.552;8.904;2023-04-03T08:25:37;3.70;;;3.40;;
8622;SDS011;4349;47.552;8.904;2023-04-03T08:28:05;3.63;;;3.53;;
8622;SDS011;4349;47.552;8.904;2023-04-03T08:30:32;3.50;;;3.30;;
8622;SDS011;4349;47.552;8.904;2023-04-03T08:33:00;3.73;;;3.53;;
8622;SDS011;4349;47.552;8.904;2023-04-03T08:35:28;3.53;;;3.33;;
8622;SDS011;4349;47.552;8.904;2023-04-03T08:37:55;3.67;;;3.47;;
8622;SDS011;4349;47.552;8.904;2023-04-03T08:40:24;4.10;;;3.80;;
8622;SDS011;4349;47.552;8.904;2023-04-03T08:42:54;3.50;;;3.30;;
8622;SDS011;4349;47.552;8.904;2023-04-03T08:45:26;3.80;;;3.60;;
8622;SDS011;4349;47.552;8.904;2023-04-03T08:47:55;4.10;;;3.80;;
8622;SDS011;4349;47.552;8.904;2023-04-03T08:50:29;4.03;;;3.17;;
8622;SDS011;4349;47.552;8.904;2023-04-03T08:52:58;3.87;;;3.67;;
8622;SDS011;4349;47.552;8.904;2023-04-03T08:55:28;4.00;;;3.80;;
8622;SDS011;4349;47.552;8.904;2023-04-03T08:57:57;3.77;;;3.57;;
8622;SDS011;4349;47.552;8.904;2023-04-03T09:00:27;4.17;;;3.83;;
8622;SDS011;4349;47.552;8.904;2023-04-03T09:02:56;4.23;;;4.00;;
8622;SDS011;4349;47.552;8.904;2023-04-03T09:05:28;6.97;;;3.63;;
8622;SDS011;4349;47.552;8.904;2023-04-03T09:07:57;4.67;;;3.70;;
8622;SDS011;4349;47.552;8.904;2023-04-03T09:10:28;4.20;;;3.90;;
8622;SDS011;4349;47.552;8.904;2023-04-03T09:12:58;4.07;;;3.87;;
8622;SDS011;4349;47.552;8.904;2023-04-03T09:15:27;4.27;;;3.97;;
8622;SDS011;4349;47.552;8.904;2023-04-03T09:18:05;4.40;;;4.00;;
8622;SDS011;4349;47.552;8.904;2023-04-03T09:20:39;4.00;;;3.77;;
8622;SDS011;4349;47.552;8.904;2023-04-03T09:23:12;4.07;;;3.77;;
8622;SDS011;4349;47.552;8.904;2023-04-03T09:25:42;3.87;;;3.67;;
8622;SDS011;4349;47.552;8.904;2023-04-03T09:28:10;4.20;;;3.90;;
8622;SDS011;4349;47.552;8.904;2023-04-03T09:30:38;4.17;;;3.90;;
8622;SDS011;4349;47.552;8.904;2023-04-03T09:33:05;4.27;;;4.07;;
8622;SDS011;4349;47.552;8.904;2023-04-03T09:35:34;4.27;;;4.07;;
8622;SDS011;4349;47.552;8.904;2023-04-03T09:38:15;3.93;;;3.70;;
8622;SDS011;4349;47.552;8.904;2023-04-03T09:40:44;3.80;;;3.50;;
8622;SDS011;4349;47.552;8.904;2023-04-03T09:43:19;4.20;;;4.00;;
8622;SDS011;4349;47.552;8.904;2023-04-03T09:45:48;3.80;;;3.60;;
8622;SDS011;4349;47.552;8.904;2023-04-03T09:48:16;3.93;;;3.73;;
8622;SDS011;4349;47.552;8.904;2023-04-03T09:53:36;4.50;;;4.30;;
8622;SDS011;4349;47.552;8.904;2023-04-03T09:56:09;4.13;;;3.90;;
8622;SDS011;4349;47.552;8.904;2023-04-03T09:58:47;4.60;;;4.20;;
8622;SDS011;4349;47.552;8.904;2023-04-03T10:01:20;4.20;;;4.00;;
8622;SDS011;4349;47.552;8.904;2023-04-03T10:03:50;4.27;;;4.07;;
8622;SDS011;4349;47.552;8.904;2023-04-03T10:06:29;4.73;;;4.47;;
8622;SDS011;4349;47.552;8.904;2023-04-03T10:08:58;5.00;;;4.60;;
8622;SDS011;4349;47.552;8.904;2023-04-03T10:11:28;4.43;;;4.13;;
8622;SDS011;4349;47.552;8.904;2023-04-03T10:13:56;4.70;;;4.40;;
8622;SDS011;4349;47.552;8.904;2023-04-03T10:16:27;4.90;;;4.60;;
8622;SDS011;4349;47.552;8.904;2023-04-03T10:19:02;4.60;;;4.30;;
8622;SDS011;4349;47.552;8.904;2023-04-03T10:21:35;4.83;;;4.50;;
8622;SDS011;4349;47.552;8.904;2023-04-03T10:24:07;4.80;;;4.50;;
8622;SDS011;4349;47.552;8.904;2023-04-03T10:26:39;4.20;;;4.00;;
8622;SDS011;4349;47.552;8.904;2023-04-03T10:29:09;4.30;;;4.10;;
8622;SDS011;4349;47.552;8.904;2023-04-03T10:31:40;4.50;;;4.30;;
8622;SDS011;4349;47.552;8.904;2023-04-03T10:34:12;5.40;;;5.00;;
8622;SDS011;4349;47.552;8.904;2023-04-03T10:36:46;4.30;;;4.10;;
8622;SDS011;4349;47.552;8.904;2023-04-03T10:39:19;4.50;;;4.20;;
8622;SDS011;4349;47.552;8.904;2023-04-03T10:41:55;4.70;;;4.30;;
8622;SDS011;4349;47.552;8.904;2023-04-03T10:44:43;4.90;;;4.53;;
8622;SDS011;4349;47.552;8.904;2023-04-03T10:47:16;6.30;;;5.70;;
8622;SDS011;4349;47.552;8.904;2023-04-03T10:49:47;22.03;;;14.30;;
8622;SDS011;4349;47.552;8.904;2023-04-03T10:52:26;13.97;;;9.37;;
8622;SDS011;4349;47.552;8.904;2023-04-03T10:54:56;6.73;;;6.13;;
8622;SDS011;4349;47.552;8.904;2023-04-03T10:57:28;4.83;;;4.60;;
8622;SDS011;4349;47.552;8.904;2023-04-03T10:59:56;4.90;;;4.60;;
8622;SDS011;4349;47.552;8.904;2023-04-03T11:02:26;4.47;;;4.17;;
8622;SDS011;4349;47.552;8.904;2023-04-03T11:04:58;4.43;;;4.20;;
8622;SDS011;4349;47.552;8.904;2023-04-03T11:07:27;4.80;;;4.47;;
8622;SDS011;4349;47.552;8.904;2023-04-03T11:09:57;4.20;;;4.00;;
8622;SDS011;4349;47.552;8.904;2023-04-03T11:12:32;5.07;;;4.77;;
8622;SDS011;4349;47.552;8.904;2023-04-03T11:15:00;4.50;;;4.10;;
8622;SDS011;4349;47.552;8.904;2023-04-03T11:17:30;4.83;;;4.43;;
8622;SDS011;4349;47.552;8.904;2023-04-03T11:20:01;5.73;;;5.33;;
8622;SDS011;4349;47.552;8.904;2023-04-03T11:22:33;4.90;;;4.53;;
8622;SDS011;4349;47.552;8.904;2023-04-03T11:25:03;4.50;;;4.20;;
8622;SDS011;4349;47.552;8.904;2023-04-03T11:27:35;4.20;;;4.00;;
8622;SDS011;4349;47.552;8.904;2023-04-03T11:30:06;10.23;;;8.10;;
8622;SDS011;4349;47.552;8.904;2023-04-03T11:32:40;6.00;;;5.60;;
8622;SDS011;4349;47.552;8.904;2023-04-03T11:35:12;5.13;;;4.73;;
8622;SDS011;4349;47.552;8.904;2023-04-03T11:37:41;5.30;;;4.90;;
8622;SDS011;4349;47.552;8.904;2023-04-03T11:40:18;4.40;;;4.13;;
8622;SDS011;4349;47.552;8.904;2023-04-03T11:42:48;3.93;;;3.77;;
8622;SDS011;4349;47.552;8.904;2023-04-03T11:45:21;4.73;;;4.43;;
8622;SDS011;4349;47.552;8.904;2023-04-03T11:47:50;4.60;;;4.40;;
8622;SDS011;4349;47.552;8.904;2023-04-03T11:50:37;4.60;;;4.30;;
8622;SDS011;4349;47.552;8.904;2023-04-03T11:56:04;3.97;;;3.67;;
8622;SDS011;4349;47.552;8.904;2023-04-03T12:01:47;5.37;;;4.97;;
8622;SDS011;4349;47.552;8.904;2023-04-03T12:04:16;4.90;;;4.03;;
8622;SDS011;4349;47.552;8.904;2023-04-03T12:06:51;4.13;;;3.93;;
8622;SDS011;4349;47.552;8.904;2023-04-03T12:09:22;4.30;;;3.93;;
8622;SDS011;4349;47.552;8.904;2023-04-03T12:11:49;3.80;;;3.67;;
8622;SDS011;4349;47.552;8.904;2023-04-03T12:14:18;4.77;;;4.47;;
8622;SDS011;4349;47.552;8.904;2023-04-03T12:16:50;3.87;;;3.67;;
8622;SDS011;4349;47.552;8.904;2023-04-03T12:19:29;3.53;;;3.33;;
8622;SDS011;4349;47.552;8.904;2023-04-03T12:22:08;4.13;;;3.87;;
8622;SDS011;4349;47.552;8.904;2023-04-03T12:24:36;3.77;;;3.57;;
8622;SDS011;4349;47.552;8.904;2023-04-03T12:27:09;4.00;;;3.80;;
8622;SDS011;4349;47.552;8.904;2023-04-03T12:29:43;4.03;;;3.83;;
8622;SDS011;4349;47.552;8.904;2023-04-03T12:32:17;3.90;;;3.70;;
8622;SDS011;4349;47.552;8.904;2023-04-03T12:34:53;3.70;;;3.50;;
8622;SDS011;4349;47.552;8.904;2023-04-03T12:37:39;3.40;;;3.30;;
8622;SDS011;4349;47.552;8.904;2023-04-03T12:40:09;3.60;;;3.40;;
8622;SDS011;4349;47.552;8.904;2023-04-03T12:42:44;3.10;;;3.00;;
8622;SDS011;4349;47.552;8.904;2023-04-03T12:45:16;3.43;;;3.33;;
8622;SDS011;4349;47.552;8.904;2023-04-03T12:47:46;3.40;;;3.30;;
8622;SDS011;4349;47.552;8.904;2023-04-03T12:50:20;3.30;;;3.10;;
8622;SDS011;4349;47.552;8.904;2023-04-03T12:52:51;3.70;;;3.40;;
8622;SDS011;4349;47.552;8.904;2023-04-03T12:55:21;3.70;;;3.50;;
8622;SDS011;4349;47.552;8.904;2023-04-03T12:57:49;3.27;;;3.17;;
8622;SDS011;4349;47.552;8.904;2023-04-03T13:00:30;3.20;;;2.97;;
8622;SDS011;4349;47.552;8.904;2023-04-03T13:03:00;3.23;;;3.13;;
8622;SDS011;4349;47.552;8.904;2023-04-03T13:05:28;3.77;;;3.57;;
8622;SDS011;4349;47.552;8.904;2023-04-03T13:07:58;3.30;;;3.20;;
8622;SDS011;4349;47.552;8.904;2023-04-03T13:10:26;3.97;;;3.77;;
8622;SDS011;4349;47.552;8.904;2023-04-03T13:12:54;3.53;;;3.33;;
8622;SDS011;4349;47.552;8.904;2023-04-03T13:15:22;3.43;;;3.27;;
8622;SDS011;4349;47.552;8.904;2023-04-03T13:17:51;3.20;;;3.00;;
8622;SDS011;4349;47.552;8.904;2023-04-03T13:20:22;3.70;;;3.50;;
8622;SDS011;4349;47.552;8.904;2023-04-03T13:22:52;3.60;;;3.40;;
8622;SDS011;4349;47.552;8.904;2023-04-03T13:25:21;3.47;;;3.27;;
8622;SDS011;4349;47.552;8.904;2023-04-03T13:27:49;3.47;;;3.27;;
8622;SDS011;4349;47.552;8.904;2023-04-03T13:30:27;3.10;;;3.00;;
8622;SDS011;4349;47.552;8.904;2023-04-03T13:32:55;2.93;;;2.83;;
8622;SDS011;4349;47.552;8.904;2023-04-03T13:35:36;2.87;;;2.77;;
8622;SDS011;4349;47.552;8.904;2023-04-03T13:38:04;3.30;;;3.10;;
8622;SDS011;4349;47.552;8.904;2023-04-03T13:40:32;2.70;;;2.60;;
8622;SDS011;4349;47.552;8.904;2023-04-03T13:43:17;3.23;;;3.03;;
8622;SDS011;4349;47.552;8.904;2023-04-03T13:45:53;3.33;;;3.10;;
8622;SDS011;4349;47.552;8.904;2023-04-03T13:48:21;3.03;;;2.90;;
8622;SDS011;4349;47.552;8.904;2023-04-03T13:50:52;3.00;;;2.90;;
8622;SDS011;4349;47.552;8.904;2023-04-03T13:53:20;3.40;;;3.20;;
8622;SDS011;4349;47.552;8.904;2023-04-03T13:55:53;3.43;;;3.13;;
8622;SDS011;4349;47.552;8.904;2023-04-03T13:58:22;3.30;;;3.10;;
8622;SDS011;4349;47.552;8.904;2023-04-03T14:00:52;3.10;;;3.00;;
8622;SDS011;4349;47.552;8.904;2023-04-03T14:03:22;3.17;;;3.07;;
8622;SDS011;4349;47.552;8.904;2023-04-03T14:05:49;2.63;;;2.53;;
8622;SDS011;4349;47.552;8.904;2023-04-03T14:08:18;2.97;;;2.87;;
8622;SDS011;4349;47.552;8.904;2023-04-03T14:10:57;3.23;;;3.13;;
8622;SDS011;4349;47.552;8.904;2023-04-03T14:13:25;2.70;;;2.60;;
8622;SDS011;4349;47.552;8.904;2023-04-03T14:15:52;3.03;;;2.87;;
8622;SDS011;4349;47.552;8.904;2023-04-03T14:18:23;3.00;;;2.90;;
8622;SDS011;4349;47.552;8.904;2023-04-03T14:20:50;2.97;;;2.77;;
8622;SDS011;4349;47.552;8.904;2023-04-03T14:23:19;2.73;;;2.60;;
8622;SDS011;4349;47.552;8.904;2023-04-03T14:25:47;3.20;;;2.90;;
8622;SDS011;4349;47.552;8.904;2023-04-03T14:28:17;2.70;;;2.60;;
8622;SDS011;4349;47.552;8.904;2023-04-03T14:30:45;2.93;;;2.70;;
8622;SDS011;4349;47.552;8.904;2023-04-03T14:33:14;3.00;;;2.80;;
8622;SDS011;4349;47.552;8.904;2023-04-03T14:35:41;3.00;;;2.80;;
8622;SDS011;4349;47.552;8.904;2023-04-03T14:38:12;3.00;;;2.90;;
8622;SDS011;4349;47.552;8.904;2023-04-03T14:40:48;3.10;;;2.93;;
8622;SDS011;4349;47.552;8.904;2023-04-03T14:43:15;3.40;;;3.10;;
8622;SDS011;4349;47.552;8.904;2023-04-03T14:45:44;3.03;;;2.93;;
8622;SDS011;4349;47.552;8.904;2023-04-03T14:48:12;3.30;;;3.20;;
8622;SDS011;4349;47.552;8.904;2023-04-03T14:50:42;3.07;;;2.97;;
8622;SDS011;4349;47.552;8.904;2023-04-03T14:53:23;3.53;;;3.27;;
8622;SDS011;4349;47.552;8.904;2023-04-03T14:56:08;3.43;;;3.13;;
8622;SDS011;4349;47.552;8.904;2023-04-03T14:58:37;3.10;;;2.80;;
8622;SDS011;4349;47.552;8.904;2023-04-03T15:01:05;3.80;;;2.93;;
8622;SDS011;4349;47.552;8.904;2023-04-03T15:03:32;4.43;;;2.90;;
8622;SDS011;4349;47.552;8.904;2023-04-03T15:06:00;3.03;;;2.93;;
8622;SDS011;4349;47.552;8.904;2023-04-03T15:08:27;3.20;;;3.00;;
8622;SDS011;4349;47.552;8.904;2023-04-03T15:10:56;3.10;;;2.90;;
8622;SDS011;4349;47.552;8.904;2023-04-03T15:13:25;3.17;;;3.07;;
8622;SDS011;4349;47.552;8.904;2023-04-03T15:15:53;3.53;;;3.37;;
8622;SDS011;4349;47.552;8.904;2023-04-03T15:18:21;3.10;;;3.00;;
8622;SDS011;4349;47.552;8.904;2023-04-03T15:20:49;3.73;;;3.00;;
8622;SDS011;4349;47.552;8.904;2023-04-03T15:23:17;3.20;;;3.00;;
8622;SDS011;4349;47.552;8.904;2023-04-03T15:25:44;3.17;;;2.97;;
8622;SDS011;4349;47.552;8.904;2023-04-03T15:28:15;3.10;;;2.90;;
8622;SDS011;4349;47.552;8.904;2023-04-03T15:30:46;2.93;;;2.83;;
8622;SDS011;4349;47.552;8.904;2023-04-03T15:33:13;3.20;;;3.00;;
8622;SDS011;4349;47.552;8.904;2023-04-03T15:35:41;3.20;;;3.00;;
8622;SDS011;4349;47.552;8.904;2023-04-03T15:38:09;3.20;;;3.00;;
8622;SDS011;4349;47.552;8.904;2023-04-03T15:40:37;3.50;;;3.20;;
8622;SDS011;4349;47.552;8.904;2023-04-03T15:43:04;3.10;;;2.90;;